createdAt,value
2019-03-11T00:00:56.793Z,99286.29
2019-03-11T00:03:26.005Z,99293.70
2019-03-11T00:05:55.235Z,99296.48
2019-03-11T00:08:24.433Z,99304.30
2019-03-11T00:10:53.672Z,99302.25
2019-03-11T00:13:22.919Z,99313.60
2019-03-11T00:15:52.166Z,99310.67
2019-03-11T00:18:21.419Z,99319.45
2019-03-11T00:20:50.667Z,99313.56
2019-03-11T00:23:19.966Z,99314.87
2019-03-11T00:25:49.506Z,99317.64
2019-03-11T00:28:18.748Z,99322.87
2019-03-11T00:30:47.938Z,99320.92
2019-03-11T00:33:17.174Z,99325.86
2019-03-11T00:35:46.438Z,99328.53
2019-03-11T00:38:15.869Z,99330.51
2019-03-11T00:40:45.141Z,99331.59
2019-03-11T00:43:14.546Z,99339.78
2019-03-11T00:45:43.762Z,99338.41
2019-03-11T00:48:12.976Z,99340.87
2019-03-11T00:50:42.194Z,99344.52
2019-03-11T00:53:11.484Z,99344.72
2019-03-11T00:55:40.723Z,99347.48
2019-03-11T00:58:09.920Z,99347.98
2019-03-11T01:00:39.441Z,99353.20
2019-03-11T01:03:09.455Z,99354.88
2019-03-11T01:05:38.653Z,99350.75
2019-03-11T01:08:07.838Z,99360.87
2019-03-11T01:10:37.096Z,99363.14
2019-03-11T01:13:06.591Z,99363.24
2019-03-11T01:15:35.803Z,99364.33
2019-03-11T01:18:05.116Z,99371.90
2019-03-11T01:20:34.305Z,99369.64
2019-03-11T01:23:03.494Z,99366.88
2019-03-11T01:25:32.802Z,99371.90
2019-03-11T01:28:02.404Z,99375.92
2019-03-11T01:30:31.601Z,99373.96
2019-03-11T01:33:00.822Z,99376.31
2019-03-11T01:35:30.049Z,99378.38
2019-03-11T01:37:59.436Z,99375.63
2019-03-11T01:40:28.910Z,99380.83
2019-03-11T01:42:58.089Z,99241.84
2019-03-11T01:45:27.272Z,99376.52
2019-03-11T01:47:56.632Z,99380.05
2019-03-11T01:50:25.914Z,99391.76
2019-03-11T01:52:55.130Z,99394.12
2019-03-11T01:55:25.384Z,99399.13
2019-03-11T01:57:54.611Z,99393.22
2019-03-11T02:00:23.800Z,99393.70
2019-03-11T02:02:53.047Z,99404.50
2019-03-11T02:05:22.227Z,99395.16
2019-03-11T02:07:51.418Z,99398.00
2019-03-11T02:10:20.775Z,99402.62
2019-03-11T02:12:50.005Z,99407.27
2019-03-11T02:15:19.215Z,99410.11
2019-03-11T02:17:48.439Z,99419.84
2019-03-11T02:20:17.660Z,99413.64
2019-03-11T02:22:46.863Z,99413.04
2019-03-11T02:25:16.191Z,99417.27
2019-03-11T02:27:45.405Z,99420.50
2019-03-11T02:30:15.447Z,99424.62
2019-03-11T02:32:44.766Z,99422.15
2019-03-11T02:35:13.958Z,99421.05
2019-03-11T02:37:43.349Z,99428.72
2019-03-11T02:40:12.924Z,99425.67
2019-03-11T02:42:42.148Z,99425.95
2019-03-11T02:45:11.534Z,99432.23
2019-03-11T02:47:40.908Z,99428.69
2019-03-11T02:50:10.279Z,99434.58
2019-03-11T02:52:39.461Z,99435.75
2019-03-11T02:55:09.085Z,99442.53
2019-03-11T02:57:38.372Z,99444.09
2019-03-11T03:00:08.942Z,99444.87
2019-03-11T03:03:03.844Z,99454.09
2019-03-11T03:05:54.844Z,99445.94
2019-03-11T03:08:24.135Z,99449.56
2019-03-11T03:10:53.286Z,99463.78
2019-03-11T03:13:23.657Z,99470.34
2019-03-11T03:15:52.890Z,99462.96
2019-03-11T03:18:22.109Z,99469.56
2019-03-11T03:20:51.318Z,99476.61
2019-03-11T03:23:23.234Z,99480.05
2019-03-11T03:25:52.424Z,99471.89
2019-03-11T03:28:22.059Z,99477.39
2019-03-11T03:30:51.688Z,99476.51
2019-03-11T03:33:20.987Z,99473.45
2019-03-11T03:35:50.194Z,99478.45
2019-03-11T03:38:30.619Z,99487.17
2019-03-11T03:40:50.455Z,99486.08
2019-03-11T03:43:19.656Z,99489.41
2019-03-11T03:45:48.897Z,99490.97
2019-03-11T03:48:18.190Z,99493.52
2019-03-11T03:50:47.390Z,99499.40
2019-03-11T03:53:16.635Z,99494.58
2019-03-11T03:55:45.834Z,99502.34
2019-03-11T03:58:15.035Z,99511.95
2019-03-11T04:00:44.619Z,99505.77
2019-03-11T04:03:13.885Z,99506.16
2019-03-11T04:05:43.125Z,99516.75
2019-03-11T04:08:12.407Z,99520.09
2019-03-11T04:10:41.587Z,99379.19
2019-03-11T04:13:10.971Z,99525.08
2019-03-11T04:15:40.385Z,99528.80
2019-03-11T04:18:10.773Z,99524.08
2019-03-11T04:20:39.974Z,99526.53
2019-03-11T04:23:09.255Z,99535.34
2019-03-11T04:25:38.487Z,99534.35
2019-03-11T04:28:07.671Z,99540.12
2019-03-11T04:30:36.910Z,99544.62
2019-03-11T04:33:06.193Z,99550.11
2019-03-11T04:35:35.383Z,99556.88
2019-03-11T04:38:04.598Z,99560.20
2019-03-11T04:40:33.782Z,99559.48
2019-03-11T04:43:03.019Z,99566.63
2019-03-11T04:45:32.201Z,99571.01
2019-03-11T04:48:01.389Z,99585.54
2019-03-11T04:50:30.595Z,99582.87
2019-03-11T04:52:59.902Z,99587.09
2019-03-11T04:55:29.082Z,99587.37
2019-03-11T04:57:58.257Z,99597.84
2019-03-11T05:00:28.724Z,99600.89
2019-03-11T05:02:58.103Z,99601.17
2019-03-11T05:05:27.331Z,99595.07
2019-03-11T05:07:56.536Z,99596.84
2019-03-11T05:10:25.717Z,99605.66
2019-03-11T05:12:55.170Z,99607.98
2019-03-11T05:15:24.433Z,99610.42
2019-03-11T05:17:53.869Z,99611.81
2019-03-11T05:20:23.055Z,99623.17
2019-03-11T05:22:54.723Z,99623.95
2019-03-11T05:25:23.197Z,99624.99
2019-03-11T05:27:52.443Z,99632.64
2019-03-11T05:30:22.226Z,99637.24
2019-03-11T05:32:51.812Z,99644.39
2019-03-11T05:35:21.054Z,99644.89
2019-03-11T05:37:50.312Z,99653.05
2019-03-11T05:40:19.533Z,99658.14
2019-03-11T05:42:48.776Z,99657.14
2019-03-11T05:45:18.001Z,99659.92
2019-03-11T05:47:47.209Z,99660.70
2019-03-11T05:50:16.530Z,99669.62
2019-03-11T05:52:45.910Z,99671.40
2019-03-11T05:55:16.235Z,99676.27
2019-03-11T05:57:45.503Z,99672.05
2019-03-11T06:00:19.066Z,99670.89
2019-03-11T06:02:48.256Z,99673.56
2019-03-11T06:05:17.592Z,99687.70
2019-03-11T06:07:46.803Z,99684.27
2019-03-11T06:10:16.301Z,99683.61
2019-03-11T06:12:45.550Z,99695.05
2019-03-11T06:15:14.940Z,99700.38
2019-03-11T06:17:44.237Z,99700.88
2019-03-11T06:20:47.929Z,99692.45
2019-03-11T06:23:17.138Z,99703.66
2019-03-11T06:25:46.378Z,99705.81
2019-03-11T06:28:15.711Z,99714.98
2019-03-11T06:30:44.887Z,99710.49
2019-03-11T06:33:14.350Z,99716.71
2019-03-11T06:35:43.594Z,99715.55
2019-03-11T06:38:12.948Z,99722.39
2019-03-11T06:40:42.192Z,99723.19
2019-03-11T06:43:11.479Z,99728.08
2019-03-11T06:45:40.673Z,99729.53
2019-03-11T06:48:09.875Z,99731.20
2019-03-11T06:50:39.107Z,99724.95
2019-03-11T06:53:08.313Z,99726.84
2019-03-11T06:55:37.541Z,99726.58
2019-03-11T06:58:06.881Z,99735.15
2019-03-11T07:00:36.063Z,99734.75
2019-03-11T07:03:05.260Z,99739.41
2019-03-11T07:05:34.544Z,99738.94
2019-03-11T07:08:03.798Z,99726.63
2019-03-11T07:10:32.989Z,99737.57
2019-03-11T07:13:02.243Z,99732.34
2019-03-11T07:15:31.442Z,99733.73
2019-03-11T07:18:00.639Z,99748.91
2019-03-11T07:20:29.858Z,99738.80
2019-03-11T07:22:59.141Z,99745.06
2019-03-11T07:25:28.339Z,99749.02
2019-03-11T07:27:57.692Z,99750.95
2019-03-11T07:30:26.934Z,99750.71
2019-03-11T07:32:56.142Z,99750.09
2019-03-11T07:35:25.736Z,99757.61
2019-03-11T07:37:54.939Z,99756.76
2019-03-11T07:40:29.804Z,99758.16
2019-03-11T07:42:55.089Z,99753.31
2019-03-11T07:45:24.285Z,99753.03
2019-03-11T07:47:53.515Z,99758.94
2019-03-11T07:50:22.858Z,99758.86
2019-03-11T07:52:52.097Z,99759.64
2019-03-11T07:55:21.285Z,99758.55
2019-03-11T07:57:50.532Z,99769.19
2019-03-11T08:00:19.921Z,99766.03
2019-03-11T08:02:49.111Z,99768.58
2019-03-11T08:05:18.369Z,99767.88
2019-03-11T08:07:47.686Z,99770.14
2019-03-11T08:10:17.063Z,99777.00
2019-03-11T08:12:46.316Z,99773.20
2019-03-11T08:15:15.711Z,99778.65
2019-03-11T08:17:44.891Z,99786.47
2019-03-11T08:20:14.312Z,99784.09
2019-03-11T08:22:43.540Z,99784.09
2019-03-11T08:25:12.936Z,99788.65
2019-03-11T08:27:42.167Z,99791.97
2019-03-11T08:30:12.050Z,99787.19
2019-03-11T08:32:41.296Z,99787.53
2019-03-11T08:35:10.720Z,99788.75
2019-03-11T08:37:39.922Z,99783.86
2019-03-11T08:40:10.176Z,99783.23
2019-03-11T08:42:39.472Z,99788.20
2019-03-11T08:45:09.993Z,99792.60
2019-03-11T08:47:39.302Z,99799.11
2019-03-11T08:50:09.526Z,99793.64
2019-03-11T08:52:38.756Z,99799.50
2019-03-11T08:55:08.086Z,99793.73
2019-03-11T08:57:39.958Z,99804.92
2019-03-11T09:00:09.129Z,99799.39
2019-03-11T09:02:38.478Z,99808.83
2019-03-11T09:05:08.667Z,99798.92
2019-03-11T09:07:37.871Z,99803.83
2019-03-11T09:10:09.076Z,99795.87
2019-03-11T09:12:38.407Z,99800.27
2019-03-11T09:15:08.468Z,99809.20
2019-03-11T09:17:37.665Z,99799.95
2019-03-11T09:20:07.855Z,99801.04
2019-03-11T09:22:37.393Z,99799.64
2019-03-11T09:25:08.038Z,99801.91
2019-03-11T09:27:37.257Z,99802.69
2019-03-11T09:30:07.774Z,99803.76
2019-03-11T09:32:36.985Z,99798.07
2019-03-11T09:35:06.484Z,99803.52
2019-03-11T09:37:35.679Z,99798.85
2019-03-11T09:40:05.606Z,99808.39
2019-03-11T09:42:34.921Z,99809.35
2019-03-11T09:45:04.205Z,99813.38
2019-03-11T09:47:33.496Z,99811.88
2019-03-11T09:50:02.749Z,99808.38
2019-03-11T09:52:31.926Z,99820.06
2019-03-11T09:55:01.149Z,99819.52
2019-03-11T09:57:30.397Z,99821.14
2019-03-11T09:59:59.673Z,99830.55
2019-03-11T10:02:28.865Z,99826.47
2019-03-11T10:04:58.104Z,99827.34
2019-03-11T10:07:27.313Z,99817.06
2019-03-11T10:09:56.512Z,99824.13
2019-03-11T10:12:25.726Z,99819.68
2019-03-11T10:14:55.045Z,99823.55
2019-03-11T10:17:24.241Z,99830.10
2019-03-11T10:19:53.775Z,99816.44
2019-03-11T10:22:22.970Z,99819.83
2019-03-11T10:24:52.289Z,99818.59
2019-03-11T10:27:21.656Z,99808.76
2019-03-11T10:29:50.985Z,99817.48
2019-03-11T10:32:20.251Z,99824.11
2019-03-11T10:34:49.524Z,99832.14
2019-03-11T10:37:18.717Z,99827.88
2019-03-11T10:39:48.213Z,99840.98
2019-03-11T10:42:17.530Z,99837.83
2019-03-11T10:44:46.731Z,99856.11
2019-03-11T10:47:15.928Z,99852.39
2019-03-11T10:49:45.195Z,99856.95
2019-03-11T10:52:14.425Z,99855.95
2019-03-11T10:54:43.674Z,99860.86
2019-03-11T10:57:12.972Z,99870.94
2019-03-11T10:59:42.159Z,99866.13
2019-03-11T11:02:11.863Z,99869.58
2019-03-11T11:04:41.151Z,99874.89
2019-03-11T11:07:10.449Z,99876.19
2019-03-11T11:09:39.633Z,99873.88
2019-03-11T11:12:08.969Z,99873.28
2019-03-11T11:14:38.147Z,99884.14
2019-03-11T11:17:07.858Z,99880.17
2019-03-11T11:19:37.067Z,99873.70
2019-03-11T11:22:06.233Z,99902.36
2019-03-11T11:24:35.426Z,99889.45
2019-03-11T11:27:05.058Z,99882.78
2019-03-11T11:29:34.251Z,99892.36
2019-03-11T11:32:03.448Z,99905.52
2019-03-11T11:34:32.657Z,99903.72
2019-03-11T11:37:02.170Z,99894.87
2019-03-11T11:39:31.347Z,99900.02
2019-03-11T11:42:00.661Z,99894.19
2019-03-11T11:44:29.936Z,99900.89
2019-03-11T11:47:00.512Z,99905.36
2019-03-11T11:49:29.837Z,99898.15
2019-03-11T11:51:59.033Z,99894.05
2019-03-11T11:54:28.211Z,99894.52
2019-03-11T11:56:57.438Z,99913.61
2019-03-11T11:59:26.613Z,99906.02
2019-03-11T12:02:03.940Z,99901.95
2019-03-11T12:04:29.647Z,99911.69
2019-03-11T12:06:58.896Z,99913.40
2019-03-11T12:09:28.084Z,99912.08
2019-03-11T12:11:57.403Z,99907.73
2019-03-11T12:14:26.575Z,99915.05
2019-03-11T12:16:55.764Z,99913.27
2019-03-11T12:19:25.109Z,99906.60
2019-03-11T12:21:54.390Z,99911.63
2019-03-11T12:24:23.739Z,99914.88
2019-03-11T12:26:53.032Z,99933.16
2019-03-11T12:29:22.457Z,99927.92
2019-03-11T12:31:53.445Z,99925.31
2019-03-11T12:34:22.731Z,99932.92
2019-03-11T12:36:52.029Z,99927.20
2019-03-11T12:39:21.214Z,99929.09
2019-03-11T12:41:50.459Z,99939.59
2019-03-11T12:44:19.657Z,99931.29
2019-03-11T12:46:48.842Z,99934.45
2019-03-11T12:49:18.088Z,99940.20
2019-03-11T12:51:50.103Z,99947.14
2019-03-11T12:54:18.323Z,99936.39
2019-03-11T12:56:47.562Z,99954.38
2019-03-11T12:59:16.870Z,99950.16
2019-03-11T13:01:46.126Z,99953.48
2019-03-11T13:04:15.485Z,99952.12
2019-03-11T13:06:44.728Z,99950.16
2019-03-11T13:09:13.945Z,99945.03
2019-03-11T13:11:43.195Z,99954.48
2019-03-11T13:14:12.400Z,99956.59
2019-03-11T13:16:41.616Z,99954.86
2019-03-11T13:19:13.477Z,99962.34
2019-03-11T13:21:43.295Z,99952.02
2019-03-11T13:24:12.515Z,99955.42
2019-03-11T13:26:42.067Z,99962.84
2019-03-11T13:29:11.445Z,99953.53
2019-03-11T13:31:40.738Z,99956.36
2019-03-11T13:34:09.949Z,99955.84
2019-03-11T13:36:39.139Z,99951.23
2019-03-11T13:39:09.494Z,99957.54
2019-03-11T13:41:38.776Z,99960.66
2019-03-11T13:44:08.114Z,99958.81
2019-03-11T13:46:37.279Z,99968.56
2019-03-11T13:49:08.663Z,99965.31
2019-03-11T13:51:37.978Z,99980.50
2019-03-11T13:54:07.261Z,99972.66
2019-03-11T13:56:36.489Z,99979.48
2019-03-11T13:59:06.033Z,99985.95
2019-03-11T14:01:35.297Z,99983.55
2019-03-11T14:04:04.642Z,99982.81
2019-03-11T14:06:33.815Z,99982.09
2019-03-11T14:09:03.662Z,99987.65
2019-03-11T14:11:32.877Z,99988.91
2019-03-11T14:14:02.087Z,99995.53
2019-03-11T14:16:31.512Z,99992.05
2019-03-11T14:19:00.799Z,99997.14
2019-03-11T14:21:29.985Z,99995.53
2019-03-11T14:23:59.284Z,99989.22
2019-03-11T14:26:28.776Z,99991.84
2019-03-11T14:28:58.267Z,100006.37
2019-03-11T14:31:27.474Z,99994.95
2019-03-11T14:33:57.108Z,99996.39
2019-03-11T14:36:26.401Z,99998.47
2019-03-11T14:38:55.719Z,100002.05
2019-03-11T14:41:25.080Z,100000.47
2019-03-11T14:43:54.332Z,99998.82
2019-03-11T14:46:23.682Z,99994.34
2019-03-11T14:48:52.914Z,100006.37
2019-03-11T14:51:22.092Z,100000.77
2019-03-11T14:53:51.294Z,100018.00
2019-03-11T14:56:20.555Z,100019.52
2019-03-11T14:58:49.849Z,100027.13
2019-03-11T15:01:19.115Z,100032.31
2019-03-11T15:03:48.452Z,100032.75
2019-03-11T15:06:17.657Z,100033.59
2019-03-11T15:08:46.858Z,100039.49
2019-03-11T15:11:16.188Z,100056.31
2019-03-11T15:13:45.380Z,100048.14
2019-03-11T15:16:14.606Z,100051.30
2019-03-11T15:18:43.854Z,100061.44
2019-03-11T15:21:13.059Z,100064.84
2019-03-11T15:23:42.389Z,100072.44
2019-03-11T15:26:12.178Z,100071.92
2019-03-11T15:28:41.415Z,100077.78
2019-03-11T15:31:11.099Z,100076.96
2019-03-11T15:33:40.480Z,100078.23
2019-03-11T15:36:09.897Z,100084.77
2019-03-11T15:38:39.095Z,100087.28
2019-03-11T15:41:08.314Z,100086.02
2019-03-11T15:43:37.510Z,100099.55
2019-03-11T15:46:06.818Z,100102.01
2019-03-11T15:48:36.195Z,100111.89
2019-03-11T15:51:05.406Z,100106.90
2019-03-11T15:53:34.613Z,100113.79
2019-03-11T15:56:03.821Z,100112.03
2019-03-11T15:58:33.042Z,100124.40
2019-03-11T16:01:02.359Z,100123.76
2019-03-11T16:03:36.272Z,100123.84
2019-03-11T16:06:02.626Z,100121.75
2019-03-11T16:08:32.181Z,100138.30
2019-03-11T16:11:01.427Z,100138.70
2019-03-11T16:13:30.620Z,100143.14
2019-03-11T16:15:59.823Z,100154.04
2019-03-11T16:18:29.061Z,100145.08
2019-03-11T16:20:58.247Z,100156.13
2019-03-11T16:23:27.453Z,100146.10
2019-03-11T16:25:56.900Z,100151.56
2019-03-11T16:28:28.121Z,100106.97
2019-03-11T16:30:57.099Z,100167.27
2019-03-11T16:33:26.339Z,100168.85
2019-03-11T16:35:55.530Z,100165.52
2019-03-11T16:38:24.894Z,100171.95
2019-03-11T16:40:54.151Z,100179.91
2019-03-11T16:43:23.460Z,100178.19
2019-03-11T16:45:52.654Z,100186.20
2019-03-11T16:48:21.905Z,100181.75
2019-03-11T16:50:51.112Z,100186.16
2019-03-11T16:53:20.331Z,100190.73
2019-03-11T16:55:50.641Z,100198.30
2019-03-11T16:58:19.883Z,100199.89
2019-03-11T17:00:49.290Z,100209.94
2019-03-11T17:03:18.559Z,100221.94
2019-03-11T17:05:47.756Z,100216.60
2019-03-11T17:08:17.006Z,100223.53
2019-03-11T17:10:46.246Z,100229.89
2019-03-11T17:13:15.445Z,100234.95
2019-03-11T17:15:46.030Z,100244.69
2019-03-11T17:18:15.284Z,100249.56
2019-03-11T17:20:44.496Z,100253.74
2019-03-11T17:23:13.696Z,100261.37
2019-03-11T17:25:43.046Z,100261.69
2019-03-11T17:28:12.232Z,100273.44
2019-03-11T17:30:41.539Z,100279.30
2019-03-11T17:33:12.383Z,100283.77
2019-03-11T17:35:41.584Z,100295.48
2019-03-11T17:38:10.828Z,100296.91
2019-03-11T17:40:40.524Z,100310.30
2019-03-11T17:43:09.745Z,100308.44
2019-03-11T17:45:39.042Z,100314.09
2019-03-11T17:48:08.270Z,100315.09
2019-03-11T17:50:37.480Z,100318.86
2019-03-11T17:53:06.775Z,100300.66
2019-03-11T17:55:36.031Z,100334.41
2019-03-11T17:58:05.236Z,100339.66
2019-03-11T18:00:35.147Z,100341.84
2019-03-11T18:03:04.784Z,100347.29
2019-03-11T18:05:34.057Z,100351.15
2019-03-11T18:08:03.407Z,100348.57
2019-03-11T18:10:32.673Z,100352.92
2019-03-11T18:13:01.856Z,100359.55
2019-03-11T18:15:31.106Z,100361.22
2019-03-11T18:18:00.460Z,100363.78
2019-03-11T18:20:29.673Z,100369.31
2019-03-11T18:22:58.869Z,100371.28
2019-03-11T18:25:28.120Z,100376.13
2019-03-11T18:27:57.338Z,100376.41
2019-03-11T18:30:26.649Z,100378.38
2019-03-11T18:32:56.093Z,100388.67
2019-03-11T18:35:25.273Z,100383.42
2019-03-11T18:38:03.459Z,100390.64
2019-03-11T18:40:25.481Z,100395.78
2019-03-11T18:42:54.911Z,100400.43
2019-03-11T18:45:24.093Z,100400.33
2019-03-11T18:47:53.353Z,100400.72
2019-03-11T18:50:22.639Z,100403.09
2019-03-11T18:52:51.925Z,100401.20
2019-03-11T18:55:21.205Z,100400.88
2019-03-11T18:57:50.366Z,100400.38
2019-03-11T19:00:20.175Z,100402.45
2019-03-11T19:02:49.572Z,100403.14
2019-03-11T19:05:18.964Z,100407.28
2019-03-11T19:07:48.225Z,100410.03
2019-03-11T19:10:17.637Z,100414.86
2019-03-11T19:12:46.927Z,100413.66
2019-03-11T19:15:16.943Z,100410.48
2019-03-11T19:17:46.468Z,100415.02
2019-03-11T19:20:17.560Z,100413.02
2019-03-11T19:22:46.836Z,100417.44
2019-03-11T19:25:16.059Z,100419.30
2019-03-11T19:27:45.434Z,100419.86
2019-03-11T19:30:18.879Z,100419.26
2019-03-11T19:32:48.266Z,100418.66
2019-03-11T19:35:18.717Z,100424.47
2019-03-11T19:37:48.056Z,100422.47
2019-03-11T19:40:18.210Z,100426.49
2019-03-11T19:42:47.598Z,100429.52
2019-03-11T19:45:17.114Z,100427.52
2019-03-11T19:47:46.646Z,100429.37
2019-03-11T19:50:16.663Z,100431.43
2019-03-11T19:52:58.276Z,100432.00
2019-03-11T19:55:20.014Z,100432.28
2019-03-11T19:57:49.309Z,100434.34
2019-03-11T20:00:19.539Z,100434.52
2019-03-11T20:02:48.822Z,100438.03
2019-03-11T20:05:19.940Z,100436.92
2019-03-11T20:07:49.337Z,100444.13
2019-03-11T20:10:18.818Z,100445.80
2019-03-11T20:12:48.124Z,100445.97
2019-03-11T20:15:18.025Z,100447.53
2019-03-11T20:17:47.926Z,100453.61
2019-03-11T20:20:17.283Z,100451.44
2019-03-11T20:22:46.523Z,100459.30
2019-03-11T20:25:21.395Z,100470.23
2019-03-11T20:27:50.689Z,100472.02
2019-03-11T20:30:20.558Z,100474.25
2019-03-11T20:32:49.867Z,100476.12
2019-03-11T20:35:19.061Z,100477.68
2019-03-11T20:37:48.483Z,100479.74
2019-03-11T20:40:17.830Z,100485.38
2019-03-11T20:42:47.074Z,100489.78
2019-03-11T20:45:16.431Z,100486.59
2019-03-11T20:47:45.917Z,100494.95
2019-03-11T20:50:15.316Z,100493.06
2019-03-11T20:52:44.640Z,100493.84
2019-03-11T20:55:14.311Z,100488.20
2019-03-11T20:57:43.774Z,100490.42
2019-03-11T21:00:17.967Z,100492.09
2019-03-11T21:02:47.258Z,100493.27
2019-03-11T21:05:17.538Z,100490.19
2019-03-11T21:07:46.845Z,100506.13
2019-03-11T21:10:16.459Z,100512.81
2019-03-11T21:12:46.064Z,100510.91
2019-03-11T21:15:15.663Z,100515.93
2019-03-11T21:17:45.004Z,100520.28
2019-03-11T21:20:14.566Z,100495.02
2019-03-11T21:22:43.887Z,100525.30
2019-03-11T21:25:14.826Z,100517.59
2019-03-11T21:27:44.139Z,100518.87
2019-03-11T21:30:21.028Z,100531.98
2019-03-11T21:32:50.275Z,100533.53
2019-03-11T21:35:20.178Z,100526.50
2019-03-11T21:37:49.573Z,100535.74
2019-03-11T21:40:19.166Z,100538.19
2019-03-11T21:42:48.698Z,100541.92
2019-03-11T21:45:18.150Z,100545.65
2019-03-11T21:47:50.738Z,100540.41
2019-03-11T21:50:20.364Z,100547.86
2019-03-11T21:52:49.619Z,100549.30
2019-03-11T21:55:18.846Z,100551.74
2019-03-11T21:57:48.807Z,100557.53
2019-03-11T22:00:32.854Z,100558.06
2019-03-11T22:02:52.297Z,100563.19
2019-03-11T22:05:21.574Z,100565.13
2019-03-11T22:07:51.077Z,100564.00
2019-03-11T22:10:20.493Z,100558.63
2019-03-11T22:12:50.094Z,100566.20
2019-03-11T22:15:19.361Z,100565.96
2019-03-11T22:17:48.849Z,100560.47
2019-03-11T22:20:18.699Z,100560.35
2019-03-11T22:22:48.143Z,100563.57
2019-03-11T22:25:20.158Z,100565.75
2019-03-11T22:27:49.549Z,100560.88
2019-03-11T22:30:19.750Z,100566.28
2019-03-11T22:32:49.075Z,100575.52
2019-03-11T22:35:18.370Z,100573.48
2019-03-11T22:37:48.009Z,100577.85
2019-03-11T22:40:17.545Z,100583.24
2019-03-11T22:42:46.814Z,100585.30
2019-03-11T22:45:17.798Z,100582.61
2019-03-11T22:47:47.063Z,100581.86
2019-03-11T22:50:17.834Z,100587.76
2019-03-11T22:52:47.484Z,100597.38
2019-03-11T22:55:16.910Z,100596.73
2019-03-11T22:57:46.122Z,100594.18
2019-03-11T23:00:26.773Z,100600.72
2019-03-11T23:02:55.988Z,100600.59
2019-03-11T23:05:25.272Z,100607.65
2019-03-11T23:07:54.511Z,100609.96
2019-03-11T23:10:23.698Z,100610.22
2019-03-11T23:12:52.889Z,100606.52
2019-03-11T23:15:22.143Z,100603.59
2019-03-11T23:17:51.335Z,100596.42
2019-03-11T23:20:20.539Z,100602.70
2019-03-11T23:22:49.805Z,100606.03
2019-03-11T23:25:19.021Z,100603.61
2019-03-11T23:27:48.236Z,100607.20
2019-03-11T23:30:17.505Z,100616.03
2019-03-11T23:32:46.744Z,100624.23
2019-03-11T23:35:15.955Z,100623.98
2019-03-11T23:37:45.349Z,100626.41
2019-03-11T23:40:14.561Z,100621.81
2019-03-11T23:42:43.760Z,100619.13
2019-03-11T23:45:13.106Z,100624.12
2019-03-11T23:47:42.285Z,100627.70
2019-03-11T23:50:11.519Z,100633.34
2019-03-11T23:52:40.924Z,100627.19
2019-03-11T23:55:10.259Z,100633.20
2019-03-11T23:57:39.472Z,100634.62
